createdAt,value
2022-11-20T00:01:57.359Z,97286.63
2022-11-20T00:04:01.569Z,97282.91
2022-11-20T00:06:02.894Z,97284.13
2022-11-20T00:08:04.161Z,97280.44
2022-11-20T00:10:05.433Z,97278.66
2022-11-20T00:12:06.732Z,97276.00
2022-11-20T00:14:08.017Z,97270.00
2022-11-20T00:16:09.322Z,97281.84
2022-11-20T00:18:10.609Z,97280.28
2022-11-20T00:20:11.884Z,97274.53
2022-11-20T00:22:13.209Z,97273.84
2022-11-20T00:24:14.488Z,97272.28
2022-11-20T00:26:15.805Z,97273.22
2022-11-20T00:28:17.160Z,97285.38
2022-11-20T00:30:18.502Z,97276.22
2022-11-20T00:32:20.063Z,97273.97
2022-11-20T00:34:21.379Z,97269.16
2022-11-20T00:36:22.669Z,97260.88
2022-11-20T00:38:23.968Z,97264.44
2022-11-20T00:40:25.236Z,97268.75
2022-11-20T00:42:26.661Z,97272.34
2022-11-20T00:44:27.953Z,97269.69
2022-11-20T00:46:29.366Z,97270.63
2022-11-20T00:48:30.718Z,97268.19
2022-11-20T00:50:32.012Z,97256.28
2022-11-20T00:52:33.345Z,97266.63
2022-11-20T00:54:34.643Z,97275.22
2022-11-20T00:56:35.940Z,97271.03
2022-11-20T00:58:37.285Z,97266.88
2022-11-20T01:00:38.609Z,97274.53
2022-11-20T01:02:39.951Z,97274.53
2022-11-20T01:04:41.238Z,97269.50
2022-11-20T01:06:42.524Z,97271.22
2022-11-20T01:08:43.852Z,97273.03
2022-11-20T01:10:45.139Z,97278.06
2022-11-20T01:13:06.422Z,97281.38
2022-11-20T01:15:07.868Z,97285.41
2022-11-20T01:17:09.161Z,97284.28
2022-11-20T01:19:10.664Z,97289.88
2022-11-20T01:21:11.976Z,97276.81
2022-11-20T01:23:13.296Z,97279.06
2022-11-20T01:25:14.629Z,97148.78
2022-11-20T01:27:15.916Z,97280.16
2022-11-20T01:29:17.398Z,97273.88
2022-11-20T01:31:18.689Z,97270.38
2022-11-20T01:33:19.987Z,97271.69
2022-11-20T01:35:21.266Z,97269.13
2022-11-20T01:37:22.568Z,97267.50
2022-11-20T01:39:24.229Z,97264.34
2022-11-20T01:41:44.373Z,97256.88
2022-11-20T01:43:45.657Z,97257.03
2022-11-20T01:45:46.924Z,97263.22
2022-11-20T01:47:49.336Z,97255.66
2022-11-20T01:49:50.672Z,97256.69
2022-11-20T01:51:51.953Z,97255.22
2022-11-20T01:53:53.252Z,97257.16
2022-11-20T01:55:54.706Z,97257.34
2022-11-20T01:57:55.988Z,97254.91
2022-11-20T01:59:57.262Z,97250.75
2022-11-20T02:01:58.559Z,97259.31
2022-11-20T02:03:59.861Z,97254.38
2022-11-20T02:06:01.146Z,97258.78
2022-11-20T02:08:02.479Z,97264.00
2022-11-20T02:10:03.756Z,97261.59
2022-11-20T02:12:05.264Z,97263.44
2022-11-20T02:14:06.581Z,97262.63
2022-11-20T02:16:07.852Z,97265.34
2022-11-20T02:18:09.265Z,97257.78
2022-11-20T02:20:10.575Z,97258.75
2022-11-20T02:22:11.846Z,97254.31
2022-11-20T02:24:13.142Z,97251.81
2022-11-20T02:26:14.433Z,97253.31
2022-11-20T02:28:15.741Z,97245.50
2022-11-20T02:30:17.030Z,97253.13
2022-11-20T02:32:18.317Z,97251.13
2022-11-20T02:34:19.643Z,97249.91
2022-11-20T02:36:20.929Z,97244.38
2022-11-20T02:38:22.219Z,97246.59
2022-11-20T02:40:23.489Z,97248.91
2022-11-20T02:42:24.781Z,97237.66
2022-11-20T02:44:26.226Z,97238.25
2022-11-20T02:46:27.511Z,97240.44
2022-11-20T02:48:32.706Z,97242.81
2022-11-20T02:50:35.200Z,97132.03
2022-11-20T02:52:36.880Z,97241.97
2022-11-20T02:54:38.149Z,97244.59
2022-11-20T02:56:39.483Z,97234.50
2022-11-20T02:58:40.779Z,97239.72
2022-11-20T03:00:42.111Z,97238.06
2022-11-20T03:02:43.417Z,97241.69
2022-11-20T03:04:44.729Z,97248.69
2022-11-20T03:06:46.009Z,97248.06
2022-11-20T03:08:47.373Z,97240.59
2022-11-20T03:10:48.643Z,97249.38
2022-11-20T03:12:49.975Z,97244.38
2022-11-20T03:14:53.286Z,97246.16
2022-11-20T03:16:54.812Z,97240.06
2022-11-20T03:18:56.118Z,97241.06
2022-11-20T03:20:58.812Z,97237.72
2022-11-20T03:23:00.149Z,97244.69
2022-11-20T03:25:01.476Z,97236.31
2022-11-20T03:27:02.909Z,97233.88
2022-11-20T03:29:04.220Z,97229.75
2022-11-20T03:31:05.541Z,97232.38
2022-11-20T03:33:06.873Z,97230.69
2022-11-20T03:35:08.164Z,97225.69
2022-11-20T03:37:09.505Z,97222.25
2022-11-20T03:39:10.790Z,97235.94
2022-11-20T03:41:12.072Z,97234.31
2022-11-20T03:43:13.400Z,97229.09
2022-11-20T03:45:14.935Z,97240.94
2022-11-20T03:47:16.222Z,97234.03
2022-11-20T03:49:17.723Z,97236.34
2022-11-20T03:51:19.024Z,97230.34
2022-11-20T03:53:20.780Z,97232.63
2022-11-20T03:55:22.105Z,97232.94
2022-11-20T03:57:23.371Z,97233.31
2022-11-20T03:59:24.657Z,97227.13
2022-11-20T04:01:25.983Z,97228.13
2022-11-20T04:03:27.332Z,97221.16
2022-11-20T04:05:28.620Z,97225.97
2022-11-20T04:07:29.978Z,97232.69
2022-11-20T04:09:31.280Z,97230.88
2022-11-20T04:11:32.583Z,97230.13
2022-11-20T04:13:33.944Z,97232.81
2022-11-20T04:15:38.345Z,97232.09
2022-11-20T04:17:40.024Z,97237.38
2022-11-20T04:19:41.359Z,97246.03
2022-11-20T04:21:42.680Z,97241.03
2022-11-20T04:23:43.967Z,97237.75
2022-11-20T04:25:45.245Z,97234.31
2022-11-20T04:27:46.710Z,97232.06
2022-11-20T04:29:48.016Z,97222.16
2022-11-20T04:31:49.385Z,97230.06
2022-11-20T04:33:50.732Z,97228.56
2022-11-20T04:35:52.052Z,97225.25
2022-11-20T04:37:53.340Z,97224.47
2022-11-20T04:39:54.783Z,97222.16
2022-11-20T04:42:14.836Z,97208.59
2022-11-20T04:44:16.153Z,97216.38
2022-11-20T04:46:17.471Z,97214.81
2022-11-20T04:48:18.772Z,97219.09
2022-11-20T04:50:20.057Z,97217.47
2022-11-20T04:52:21.383Z,97220.13
2022-11-20T04:54:22.705Z,97220.28
2022-11-20T04:56:24.009Z,97215.09
2022-11-20T04:58:25.327Z,97207.41
2022-11-20T05:00:26.614Z,97203.97
2022-11-20T05:02:28.284Z,97202.19
2022-11-20T05:04:29.608Z,97213.09
2022-11-20T05:06:30.884Z,97201.81
2022-11-20T05:08:32.216Z,97172.38
2022-11-20T05:10:33.523Z,97207.91
2022-11-20T05:12:34.837Z,97206.78
2022-11-20T05:14:36.168Z,97205.47
2022-11-20T05:16:37.751Z,97203.31
2022-11-20T05:18:39.037Z,97197.88
2022-11-20T05:20:40.336Z,97201.13
2022-11-20T05:22:41.628Z,97201.00
2022-11-20T05:24:43.096Z,97205.16
2022-11-20T05:28:45.711Z,97197.09
2022-11-20T05:30:46.993Z,97205.69
2022-11-20T05:32:48.312Z,97201.53
2022-11-20T05:34:49.652Z,97206.81
2022-11-20T05:36:51.115Z,97205.34
2022-11-20T05:38:55.467Z,97208.97
2022-11-20T05:40:59.528Z,97212.56
2022-11-20T05:43:00.845Z,97216.22
2022-11-20T05:45:02.133Z,97212.25
2022-11-20T05:47:03.414Z,97215.69
2022-11-20T05:49:04.757Z,97203.94
2022-11-20T05:51:06.043Z,97201.56
2022-11-20T05:53:07.325Z,97207.66
2022-11-20T05:55:08.608Z,97197.66
2022-11-20T05:57:09.888Z,97197.69
2022-11-20T05:59:11.222Z,97194.53
2022-11-20T06:01:12.722Z,97196.31
2022-11-20T06:03:14.025Z,97185.28
2022-11-20T06:05:15.427Z,97192.97
2022-11-20T06:07:16.996Z,97189.59
2022-11-20T06:09:18.512Z,97188.78
2022-11-20T06:11:20.035Z,97185.41
2022-11-20T06:13:21.315Z,97180.25
2022-11-20T06:15:22.596Z,97187.63
2022-11-20T06:17:23.861Z,97184.09
2022-11-20T06:19:25.165Z,97178.78
2022-11-20T06:21:26.449Z,97181.16
2022-11-20T06:23:27.714Z,97181.75
2022-11-20T06:25:29.053Z,97182.22
2022-11-20T06:27:30.365Z,97182.69
2022-11-20T06:29:34.135Z,97185.00
2022-11-20T06:31:38.544Z,97178.78
2022-11-20T06:33:39.827Z,97180.91
2022-11-20T06:35:41.319Z,97190.91
2022-11-20T06:37:42.612Z,97194.94
2022-11-20T06:39:43.932Z,97183.84
2022-11-20T06:41:45.252Z,97180.47
2022-11-20T06:43:46.549Z,97183.28
2022-11-20T06:45:47.872Z,97188.41
2022-11-20T06:47:49.218Z,97190.34
2022-11-20T06:49:50.517Z,97197.22
2022-11-20T06:51:51.849Z,97191.47
2022-11-20T06:53:53.137Z,97202.66
2022-11-20T06:55:54.424Z,97191.84
2022-11-20T06:57:56.077Z,97190.41
2022-11-20T06:59:57.428Z,97183.69
2022-11-20T07:01:58.706Z,97181.53
2022-11-20T07:03:59.988Z,97181.66
2022-11-20T07:06:01.288Z,97172.53
2022-11-20T07:08:02.580Z,97170.09
2022-11-20T07:10:03.968Z,97175.47
2022-11-20T07:12:05.249Z,97169.91
2022-11-20T07:14:06.622Z,97160.88
2022-11-20T07:16:07.948Z,97168.81
2022-11-20T07:18:09.229Z,97167.44
2022-11-20T07:20:10.557Z,97170.13
2022-11-20T07:22:11.994Z,97168.50
2022-11-20T07:24:13.264Z,97160.84
2022-11-20T07:26:14.578Z,97160.97
2022-11-20T07:28:15.928Z,97163.59
2022-11-20T07:30:17.213Z,97155.84
2022-11-20T07:32:18.499Z,97151.66
2022-11-20T07:34:20.940Z,97151.59
2022-11-20T07:36:22.255Z,97156.19
2022-11-20T07:38:23.537Z,97155.38
2022-11-20T07:40:24.820Z,97158.16
2022-11-20T07:42:26.121Z,97159.91
2022-11-20T07:44:27.493Z,97149.81
2022-11-20T07:46:28.760Z,97143.53
2022-11-20T07:48:30.040Z,97152.78
2022-11-20T07:50:31.379Z,97154.38
2022-11-20T07:52:32.674Z,97144.75
2022-11-20T07:54:34.247Z,97151.53
2022-11-20T07:56:35.805Z,97146.53
2022-11-20T07:58:37.536Z,97148.72
2022-11-20T08:00:38.883Z,97148.28
2022-11-20T08:02:40.374Z,97144.72
2022-11-20T08:04:41.670Z,97144.28
2022-11-20T08:06:42.990Z,97144.91
2022-11-20T08:08:44.330Z,97148.09
2022-11-20T08:10:45.617Z,97146.19
2022-11-20T08:13:05.716Z,97146.84
2022-11-20T08:15:12.605Z,97143.28
2022-11-20T08:17:14.516Z,97147.22
2022-11-20T08:19:15.827Z,97128.25
2022-11-20T08:21:17.142Z,97139.16
2022-11-20T08:23:18.428Z,97129.78
2022-11-20T08:25:19.697Z,97133.06
2022-11-20T08:27:21.005Z,97133.38
2022-11-20T08:29:22.703Z,97129.22
2022-11-20T08:31:24.224Z,97128.41
2022-11-20T08:33:25.493Z,97130.38
2022-11-20T08:35:26.788Z,97132.13
2022-11-20T08:37:28.232Z,97131.00
2022-11-20T08:39:29.551Z,97138.25
2022-11-20T08:41:33.920Z,97141.16
2022-11-20T08:43:35.290Z,97121.91
2022-11-20T08:45:36.624Z,97119.75
2022-11-20T08:47:37.953Z,97128.50
2022-11-20T08:49:39.240Z,97129.59
2022-11-20T08:51:40.568Z,97125.69
2022-11-20T08:53:42.220Z,97126.75
2022-11-20T08:55:43.541Z,97123.66
2022-11-20T08:57:49.523Z,97129.13
2022-11-20T09:00:06.026Z,97120.69
2022-11-20T09:02:10.821Z,97122.63
2022-11-20T09:04:12.853Z,97124.53
2022-11-20T09:06:20.324Z,97117.28
2022-11-20T09:08:21.917Z,97114.59
2022-11-20T09:12:44.537Z,97118.72
2022-11-20T09:14:47.867Z,97125.41
2022-11-20T09:16:51.083Z,97115.91
2022-11-20T09:19:02.224Z,97120.44
2022-11-20T09:21:13.893Z,97117.13
2022-11-20T09:23:15.297Z,97123.38
2022-11-20T09:25:16.584Z,97118.03
2022-11-20T09:27:22.677Z,97112.94
2022-11-20T09:29:24.305Z,97118.59
2022-11-20T09:31:26.445Z,97122.31
2022-11-20T09:33:27.780Z,97116.81
2022-11-20T09:35:29.135Z,97108.88
2022-11-20T09:37:30.437Z,97109.59
2022-11-20T09:39:31.743Z,97108.41
2022-11-20T09:41:33.052Z,97111.59
2022-11-20T09:43:35.742Z,97110.03
2022-11-20T09:45:37.684Z,97100.28
2022-11-20T09:47:38.997Z,97104.69
2022-11-20T09:49:40.880Z,97114.56
2022-11-20T09:51:42.711Z,97107.03
2022-11-20T09:53:44.024Z,97104.69
2022-11-20T09:55:45.340Z,97100.03
2022-11-20T09:57:46.620Z,97106.84
2022-11-20T09:59:47.902Z,97094.97
2022-11-20T10:01:49.177Z,97088.38
2022-11-20T10:03:53.405Z,97086.91
2022-11-20T10:05:54.697Z,97094.44
2022-11-20T10:07:56.294Z,97088.09
2022-11-20T10:09:57.945Z,97094.16
2022-11-20T10:11:59.285Z,97096.28
2022-11-20T10:14:00.605Z,97096.41
2022-11-20T10:16:02.073Z,97094.88
2022-11-20T10:18:03.353Z,97100.84
2022-11-20T10:20:07.861Z,97114.06
2022-11-20T10:22:09.121Z,97103.16
2022-11-20T10:24:11.374Z,97097.41
2022-11-20T10:26:13.320Z,97095.16
2022-11-20T10:28:14.606Z,97098.59
2022-11-20T10:30:15.912Z,97090.28
2022-11-20T10:32:17.228Z,97088.72
2022-11-20T10:34:22.595Z,97104.34
2022-11-20T10:36:24.430Z,97090.09
2022-11-20T10:38:25.732Z,97096.16
2022-11-20T10:40:27.056Z,97092.81
2022-11-20T10:42:28.382Z,97086.19
2022-11-20T10:44:49.412Z,97086.31
2022-11-20T10:46:53.731Z,97080.47
2022-11-20T10:48:55.022Z,97082.16
2022-11-20T10:50:56.285Z,97081.38
2022-11-20T10:52:58.169Z,97080.34
2022-11-20T10:54:59.491Z,97091.22
2022-11-20T10:57:00.803Z,97090.13
2022-11-20T10:59:02.345Z,97069.53
2022-11-20T11:01:04.423Z,97080.28
2022-11-20T11:03:05.740Z,97074.97
2022-11-20T11:05:11.633Z,97073.06
2022-11-20T11:07:15.546Z,97070.19
2022-11-20T11:09:16.872Z,97063.19
2022-11-20T11:11:18.319Z,97057.19
2022-11-20T11:13:19.644Z,97048.63
2022-11-20T11:15:20.989Z,97040.09
2022-11-20T11:17:22.484Z,97046.06
2022-11-20T11:19:24.002Z,97040.09
2022-11-20T11:21:25.522Z,97043.41
2022-11-20T11:23:26.924Z,97051.09
2022-11-20T11:25:31.433Z,97043.50
2022-11-20T11:27:32.729Z,97046.13
2022-11-20T11:29:34.016Z,97042.72
2022-11-20T11:31:35.408Z,97035.19
2022-11-20T11:33:36.961Z,97036.22
2022-11-20T11:35:38.282Z,97048.13
2022-11-20T11:37:39.566Z,97039.59
2022-11-20T11:39:40.871Z,97042.22
2022-11-20T11:41:42.152Z,97039.81
2022-11-20T11:44:02.196Z,97037.44
2022-11-20T11:46:03.519Z,97043.59
2022-11-20T11:48:04.839Z,97037.69
2022-11-20T11:50:06.139Z,97036.94
2022-11-20T11:52:07.484Z,97042.25
2022-11-20T11:54:08.766Z,97037.25
2022-11-20T11:56:10.092Z,97034.91
2022-11-20T11:58:11.409Z,97044.41
2022-11-20T12:00:13.006Z,97030.13
2022-11-20T12:02:14.337Z,97030.06
2022-11-20T12:04:15.672Z,97015.47
2022-11-20T12:06:16.962Z,97015.44
2022-11-20T12:08:18.332Z,97011.22
2022-11-20T12:10:19.697Z,97019.72
2022-11-20T12:12:20.985Z,97015.56
2022-11-20T12:14:24.958Z,97007.13
2022-11-20T12:16:26.358Z,97004.56
2022-11-20T12:18:27.693Z,96988.41
2022-11-20T12:20:28.976Z,96999.31
2022-11-20T12:22:30.291Z,96989.88
2022-11-20T12:24:31.580Z,96983.03
2022-11-20T12:26:32.858Z,96979.72
2022-11-20T12:28:34.615Z,96974.72
2022-11-20T12:30:36.463Z,96985.78
2022-11-20T12:32:37.729Z,96982.56
2022-11-20T12:34:39.147Z,96971.84
2022-11-20T12:36:40.481Z,96964.69
2022-11-20T12:38:41.768Z,96974.78
2022-11-20T12:40:43.084Z,96960.34
2022-11-20T12:43:03.125Z,96959.88
2022-11-20T12:45:10.292Z,96959.94
2022-11-20T12:47:11.566Z,96959.81
2022-11-20T12:49:12.848Z,96951.22
2022-11-20T12:51:15.485Z,96950.00
2022-11-20T12:53:17.473Z,96951.16
2022-11-20T12:55:18.810Z,96945.28
2022-11-20T12:57:20.128Z,96947.03
2022-11-20T12:59:21.615Z,96941.03
2022-11-20T13:01:41.556Z,96936.59
2022-11-20T13:03:45.713Z,96941.13
2022-11-20T13:05:46.996Z,96940.28
2022-11-20T13:07:48.326Z,96942.22
2022-11-20T13:09:49.597Z,96944.56
2022-11-20T13:11:51.535Z,96935.84
2022-11-20T13:13:52.828Z,96939.09
2022-11-20T13:15:54.109Z,96943.06
2022-11-20T13:17:55.415Z,96940.25
2022-11-20T13:19:56.739Z,96940.09
2022-11-20T13:21:58.060Z,96947.25
2022-11-20T13:23:59.342Z,96939.63
2022-11-20T13:26:04.517Z,96940.28
2022-11-20T13:28:05.820Z,96948.03
2022-11-20T13:30:07.132Z,96950.88
2022-11-20T13:32:08.504Z,96949.63
2022-11-20T13:34:09.833Z,96956.75
2022-11-20T13:36:11.117Z,96957.50
2022-11-20T13:38:12.465Z,96950.75
2022-11-20T13:40:13.816Z,96947.44
2022-11-20T13:42:15.441Z,96959.97
2022-11-20T13:44:16.774Z,96946.03
2022-11-20T13:46:25.299Z,96944.69
2022-11-20T13:48:26.625Z,96938.22
2022-11-20T13:50:27.921Z,96942.56
2022-11-20T13:52:29.227Z,96933.84
2022-11-20T13:54:30.571Z,96939.31
2022-11-20T13:56:31.865Z,96935.00
2022-11-20T13:58:33.514Z,96933.25
2022-11-20T14:00:34.868Z,96937.41
2022-11-20T14:02:36.182Z,96937.03
2022-11-20T14:04:37.539Z,96941.44
2022-11-20T14:06:38.821Z,96938.66
2022-11-20T14:08:40.556Z,96932.25
2022-11-20T14:10:41.857Z,96929.88
2022-11-20T14:12:43.185Z,96935.78
2022-11-20T14:14:47.221Z,96937.75
2022-11-20T14:16:48.526Z,96931.31
2022-11-20T14:18:49.857Z,96933.19
2022-11-20T14:20:56.835Z,96937.56
2022-11-20T14:22:58.166Z,96837.13
2022-11-20T14:24:59.472Z,96950.09
2022-11-20T14:27:01.072Z,96947.50
2022-11-20T14:29:02.399Z,96937.66
2022-11-20T14:31:03.680Z,96940.28
2022-11-20T14:33:04.971Z,96938.69
2022-11-20T14:35:06.265Z,96942.16
2022-11-20T14:37:11.454Z,96942.28
2022-11-20T14:39:16.630Z,96934.75
2022-11-20T14:41:18.105Z,96935.66
2022-11-20T14:43:19.585Z,96936.63
2022-11-20T14:45:20.868Z,96933.16
2022-11-20T14:47:22.413Z,96944.16
2022-11-20T14:49:26.821Z,96934.44
2022-11-20T14:51:28.285Z,96936.50
2022-11-20T14:53:29.568Z,96937.78
2022-11-20T14:55:30.863Z,96936.56
2022-11-20T14:57:32.216Z,96938.75
2022-11-20T14:59:33.504Z,96945.94
2022-11-20T15:01:34.851Z,96941.19
2022-11-20T15:03:36.426Z,96942.44
2022-11-20T15:05:37.813Z,96941.38
2022-11-20T15:07:41.122Z,96941.38
2022-11-20T15:09:42.495Z,96937.72
2022-11-20T15:11:43.789Z,96942.84
2022-11-20T15:13:45.076Z,96942.69
2022-11-20T15:15:46.392Z,96939.38
2022-11-20T15:17:47.728Z,96936.41
2022-11-20T15:19:49.015Z,96936.84
2022-11-20T15:21:50.388Z,96927.03
2022-11-20T15:23:51.797Z,96930.69
2022-11-20T15:25:53.191Z,96919.19
2022-11-20T15:27:57.442Z,96916.69
2022-11-20T15:30:01.597Z,96909.81
2022-11-20T15:32:02.883Z,96915.72
2022-11-20T15:34:04.169Z,96913.84
2022-11-20T15:36:05.448Z,96903.84
2022-11-20T15:38:06.802Z,96903.56
2022-11-20T15:40:08.129Z,96894.03
2022-11-20T15:42:09.457Z,96900.38
2022-11-20T15:44:10.844Z,96904.31
2022-11-20T15:46:12.202Z,96906.63
2022-11-20T15:48:13.545Z,96908.53
2022-11-20T15:50:14.869Z,96905.72
2022-11-20T15:52:16.153Z,96915.81
2022-11-20T15:54:19.047Z,96911.44
2022-11-20T15:56:23.353Z,96904.66
2022-11-20T15:58:25.301Z,96902.53
2022-11-20T16:00:26.601Z,96912.19
2022-11-20T16:02:27.937Z,96904.47
2022-11-20T16:04:29.339Z,96907.56
2022-11-20T16:06:30.717Z,96900.91
2022-11-20T16:08:32.045Z,96904.16
2022-11-20T16:10:33.324Z,96902.03
2022-11-20T16:12:53.153Z,96906.03
2022-11-20T16:15:13.892Z,96905.69
2022-11-20T16:17:15.248Z,96903.72
2022-11-20T16:19:16.689Z,96913.03
2022-11-20T16:21:33.527Z,96905.09
2022-11-20T16:23:38.290Z,96898.28
2022-11-20T16:25:39.661Z,96899.59
2022-11-20T16:27:40.953Z,96900.56
2022-11-20T16:29:42.257Z,96904.47
2022-11-20T16:31:46.262Z,96901.22
2022-11-20T16:33:47.590Z,96900.69
2022-11-20T16:35:48.877Z,96901.50
2022-11-20T16:37:50.184Z,96895.94
2022-11-20T16:39:51.493Z,96896.69
2022-11-20T16:41:52.834Z,96906.19
2022-11-20T16:43:57.109Z,96907.31
2022-11-20T16:45:58.397Z,96907.72
2022-11-20T16:47:59.696Z,96910.41
2022-11-20T16:50:00.990Z,96915.59
2022-11-20T16:52:05.081Z,96911.03
2022-11-20T16:54:09.743Z,96924.06
2022-11-20T16:56:14.049Z,96908.81
2022-11-20T16:58:15.386Z,96922.75
2022-11-20T17:00:16.676Z,96914.75
2022-11-20T17:02:20.742Z,96910.34
2022-11-20T17:04:22.178Z,96912.69
2022-11-20T17:06:23.717Z,96921.19
2022-11-20T17:08:25.021Z,96920.00
2022-11-20T17:10:26.324Z,96917.59
2022-11-20T17:12:27.710Z,96925.69
2022-11-20T17:14:29.012Z,96927.16
2022-11-20T17:16:33.149Z,96927.63
2022-11-20T17:18:34.476Z,96930.31
2022-11-20T17:20:35.786Z,96925.94
2022-11-20T17:22:37.117Z,96920.31
2022-11-20T17:24:38.389Z,96930.47
2022-11-20T17:26:42.672Z,96925.22
2022-11-20T17:28:44.008Z,96931.44
2022-11-20T17:30:54.357Z,96928.03
2022-11-20T17:32:55.640Z,96927.03
2022-11-20T17:35:09.058Z,96921.28
2022-11-20T17:37:10.399Z,96926.31
2022-11-20T17:39:14.457Z,96916.75
2022-11-20T17:41:15.734Z,96908.56
2022-11-20T17:43:17.061Z,96909.72
2022-11-20T17:45:18.379Z,96917.00
2022-11-20T17:47:19.716Z,96922.75
2022-11-20T17:49:23.128Z,96923.91
2022-11-20T17:51:25.460Z,96924.47
2022-11-20T17:53:26.781Z,96920.50
2022-11-20T17:55:51.471Z,96920.31
2022-11-20T17:57:58.448Z,96919.69
2022-11-20T17:59:59.965Z,96914.56
2022-11-20T18:02:04.210Z,96914.66
2022-11-20T18:04:05.582Z,96913.63
2022-11-20T18:06:26.155Z,96915.50
2022-11-20T18:08:36.400Z,96909.69
2022-11-20T18:10:37.729Z,96908.94
2022-11-20T18:12:39.065Z,96900.72
2022-11-20T18:14:46.522Z,96903.47
2022-11-20T18:16:53.650Z,96901.22
2022-11-20T18:18:57.860Z,96909.59
2022-11-20T18:21:00.377Z,96911.78
2022-11-20T18:23:04.666Z,96914.56
2022-11-20T18:25:06.711Z,96908.00
2022-11-20T18:27:23.014Z,96915.84
2022-11-20T18:29:27.635Z,96911.97
2022-11-20T18:31:34.772Z,96907.59
2022-11-20T18:33:42.060Z,96916.34
2022-11-20T18:35:43.345Z,96896.75
2022-11-20T18:37:50.753Z,96897.28
2022-11-20T18:39:52.194Z,96897.28
2022-11-20T18:42:12.142Z,96904.03
2022-11-20T18:44:35.168Z,96900.66
2022-11-20T18:46:42.930Z,96903.16
2022-11-20T18:48:47.225Z,96902.63
2022-11-20T18:50:54.354Z,96909.94
2022-11-20T18:55:03.075Z,96905.81
2022-11-20T18:57:07.420Z,96903.56
2022-11-20T18:59:11.449Z,96912.59
2022-11-20T19:01:15.498Z,96908.66
2022-11-20T19:03:17.053Z,96909.31
2022-11-20T19:05:36.272Z,96908.13
2022-11-20T19:07:40.313Z,96915.91
2022-11-20T19:09:50.913Z,96919.75
2022-11-20T19:11:55.069Z,96919.59
2022-11-20T19:14:11.558Z,96915.03
2022-11-20T19:16:27.852Z,96914.78
2022-11-20T19:18:57.173Z,96904.28
2022-11-20T19:21:01.765Z,96894.91
2022-11-20T19:23:09.304Z,96902.41
2022-11-20T19:25:10.651Z,96895.38
2022-11-20T19:27:18.005Z,96899.09
2022-11-20T19:29:28.213Z,96899.09
2022-11-20T19:31:29.713Z,96896.59
2022-11-20T19:33:31.197Z,96894.56
2022-11-20T19:35:35.502Z,96899.84
2022-11-20T19:37:42.672Z,96895.78
2022-11-20T19:39:59.021Z,96892.69
2022-11-20T19:42:12.494Z,96891.25
2022-11-20T19:44:17.629Z,96891.34
2022-11-20T19:46:20.428Z,96882.50
2022-11-20T19:48:30.751Z,96886.13
2022-11-20T19:50:32.025Z,96881.16
2022-11-20T19:52:33.313Z,96884.16
2022-11-20T19:54:34.612Z,96881.50
2022-11-20T19:56:36.117Z,96873.91
2022-11-20T19:58:43.074Z,96884.06
2022-11-20T20:00:44.424Z,96885.00
2022-11-20T20:02:45.713Z,96883.13
2022-11-20T20:04:53.264Z,96882.91
2022-11-20T20:06:54.594Z,96879.59
2022-11-20T20:08:56.147Z,96886.78
2022-11-20T20:10:59.614Z,96877.22
2022-11-20T20:13:01.176Z,96883.09
2022-11-20T20:15:02.448Z,96881.00
2022-11-20T20:17:03.740Z,96877.31
2022-11-20T20:19:05.078Z,96880.31
2022-11-20T20:21:06.401Z,96879.13
2022-11-20T20:23:07.912Z,96881.69
2022-11-20T20:25:09.256Z,96882.81
2022-11-20T20:27:13.661Z,96872.28
2022-11-20T20:29:15.006Z,96878.38
2022-11-20T20:31:16.317Z,96874.03
2022-11-20T20:33:17.642Z,96877.34
2022-11-20T20:35:18.963Z,96869.25
2022-11-20T20:37:20.293Z,96869.09
2022-11-20T20:39:21.738Z,96869.50
2022-11-20T20:41:23.222Z,96869.94
2022-11-20T20:43:24.638Z,96871.91
2022-11-20T20:45:25.932Z,96862.94
2022-11-20T20:47:27.205Z,96868.91
2022-11-20T20:49:28.544Z,96874.34
2022-11-20T20:51:29.860Z,96865.16
2022-11-20T20:53:31.176Z,96858.25
2022-11-20T20:55:34.101Z,96856.66
2022-11-20T20:57:35.398Z,96857.88
2022-11-20T20:59:36.697Z,96857.34
2022-11-20T21:01:40.867Z,96737.69
2022-11-20T21:03:42.220Z,96836.91
2022-11-20T21:05:43.507Z,96842.88
2022-11-20T21:08:03.328Z,96855.09
2022-11-20T21:10:04.613Z,96840.84
2022-11-20T21:12:05.909Z,96835.03
2022-11-20T21:14:07.200Z,96838.53
2022-11-20T21:16:08.540Z,96840.22
2022-11-20T21:18:09.832Z,96828.53
2022-11-20T21:20:31.058Z,96821.97
2022-11-20T21:22:36.376Z,96819.13
2022-11-20T21:24:37.938Z,96827.75
2022-11-20T21:26:39.206Z,96820.25
2022-11-20T21:28:41.005Z,96812.13
2022-11-20T21:30:42.278Z,96802.34
2022-11-20T21:32:43.796Z,96804.59
2022-11-20T21:34:45.116Z,96797.03
2022-11-20T21:36:47.016Z,96797.97
2022-11-20T21:38:48.287Z,96799.59
2022-11-20T21:40:49.574Z,96800.06
2022-11-20T21:42:50.925Z,96791.19
2022-11-20T21:44:52.232Z,96795.84
2022-11-20T21:46:53.522Z,96794.50
2022-11-20T21:48:54.875Z,96795.44
2022-11-20T21:50:56.349Z,96785.75
2022-11-20T21:52:57.661Z,96783.47
2022-11-20T21:54:59.041Z,96781.19
2022-11-20T21:57:00.361Z,96617.22
2022-11-20T21:59:01.706Z,96777.69
2022-11-20T22:01:02.992Z,96781.53
2022-11-20T22:03:04.272Z,96765.88
2022-11-20T22:05:05.555Z,96764.63
2022-11-20T22:07:06.923Z,96767.63
2022-11-20T22:09:08.262Z,96752.69
2022-11-20T22:11:09.661Z,96747.88
2022-11-20T22:13:29.517Z,96750.94
2022-11-20T22:15:58.901Z,96750.53
2022-11-20T22:18:18.202Z,96746.56
2022-11-20T22:20:19.496Z,96736.00
2022-11-20T22:22:20.776Z,96726.94
2022-11-20T22:24:22.522Z,96716.31
2022-11-20T22:26:24.270Z,96706.41
2022-11-20T22:28:26.586Z,96699.03
2022-11-20T22:30:27.913Z,96699.31
2022-11-20T22:32:29.200Z,96688.47
2022-11-20T22:34:30.516Z,96688.75
2022-11-20T22:36:31.808Z,96692.41
2022-11-20T22:38:38.883Z,96688.38
2022-11-20T22:40:40.668Z,96688.56
2022-11-20T22:42:41.954Z,96687.09
2022-11-20T22:44:43.237Z,96688.19
2022-11-20T22:46:44.565Z,96689.28
2022-11-20T22:48:45.862Z,96686.91
2022-11-20T22:50:47.240Z,96684.59
2022-11-20T22:52:48.515Z,96686.47
2022-11-20T22:54:49.796Z,96691.75
2022-11-20T22:56:51.129Z,96691.06
2022-11-20T22:58:52.460Z,96696.28
2022-11-20T23:00:53.748Z,96695.66
2022-11-20T23:02:55.041Z,96687.28
2022-11-20T23:04:56.348Z,96682.31
2022-11-20T23:06:57.633Z,96685.03
2022-11-20T23:08:58.913Z,96674.94
2022-11-20T23:11:00.217Z,96680.09
2022-11-20T23:13:01.500Z,96666.53
2022-11-20T23:15:02.814Z,96667.41
2022-11-20T23:17:04.139Z,96673.41
2022-11-20T23:19:05.491Z,96665.03
2022-11-20T23:21:06.840Z,96672.81
2022-11-20T23:23:08.108Z,96671.16
2022-11-20T23:25:09.437Z,96671.22
2022-11-20T23:27:10.720Z,96663.50
2022-11-20T23:29:12.843Z,96668.34
2022-11-20T23:31:14.208Z,96663.56
2022-11-20T23:33:15.559Z,96657.84
2022-11-20T23:35:16.836Z,96652.16
2022-11-20T23:37:18.137Z,96641.56
2022-11-20T23:39:20.152Z,96632.72
2022-11-20T23:41:21.492Z,96639.06
2022-11-20T23:43:22.793Z,96633.53
2022-11-20T23:45:24.131Z,96636.59
2022-11-20T23:47:25.430Z,96641.47
2022-11-20T23:49:26.698Z,96637.94
2022-11-20T23:51:28.038Z,96638.56
2022-11-20T23:53:29.324Z,96632.56
2022-11-20T23:55:30.625Z,96626.63
2022-11-20T23:57:31.916Z,96630.03
2022-11-20T23:59:33.241Z,96626.00
